sensor_id;sensor_type;location;lat;lon;timestamp;P1;durP1;ratioP1;P2;durP2;ratioP2
15899;SDS011;8048;50.644;6.184;2022-11-12T00:00:30;1.40;;;1.30;;
15899;SDS011;8048;50.644;6.184;2022-11-12T00:02:56;3.50;;;1.30;;
15899;SDS011;8048;50.644;6.184;2022-11-12T00:05:22;1.53;;;1.40;;
15899;SDS011;8048;50.644;6.184;2022-11-12T00:07:48;1.63;;;1.40;;
15899;SDS011;8048;50.644;6.184;2022-11-12T00:10:14;1.20;;;1.20;;
15899;SDS011;8048;50.644;6.184;2022-11-12T00:12:40;1.50;;;1.40;;
15899;SDS011;8048;50.644;6.184;2022-11-12T00:15:05;1.83;;;1.73;;
15899;SDS011;8048;50.644;6.184;2022-11-12T00:17:31;1.83;;;1.73;;
15899;SDS011;8048;50.644;6.184;2022-11-12T00:19:57;1.50;;;1.50;;
15899;SDS011;8048;50.644;6.184;2022-11-12T00:22:22;4.40;;;1.97;;
15899;SDS011;8048;50.644;6.184;2022-11-12T00:24:48;1.90;;;1.80;;
15899;SDS011;8048;50.644;6.184;2022-11-12T00:27:14;2.20;;;2.03;;
15899;SDS011;8048;50.644;6.184;2022-11-12T00:29:40;1.77;;;1.47;;
15899;SDS011;8048;50.644;6.184;2022-11-12T00:32:05;2.20;;;2.07;;
15899;SDS011;8048;50.644;6.184;2022-11-12T00:34:31;2.90;;;1.80;;
15899;SDS011;8048;50.644;6.184;2022-11-12T00:36:58;2.07;;;1.77;;
15899;SDS011;8048;50.644;6.184;2022-11-12T00:39:24;1.20;;;1.20;;
15899;SDS011;8048;50.644;6.184;2022-11-12T00:41:49;1.00;;;1.00;;
15899;SDS011;8048;50.644;6.184;2022-11-12T00:44:15;1.73;;;0.97;;
15899;SDS011;8048;50.644;6.184;2022-11-12T00:46:40;1.70;;;1.70;;
15899;SDS011;8048;50.644;6.184;2022-11-12T00:49:06;0.90;;;0.90;;
15899;SDS011;8048;50.644;6.184;2022-11-12T00:51:32;1.47;;;1.37;;
15899;SDS011;8048;50.644;6.184;2022-11-12T00:53:57;1.30;;;1.17;;
15899;SDS011;8048;50.644;6.184;2022-11-12T00:56:23;1.47;;;1.37;;
15899;SDS011;8048;50.644;6.184;2022-11-12T00:58:48;1.50;;;1.40;;
15899;SDS011;8048;50.644;6.184;2022-11-12T01:01:14;1.60;;;1.50;;
15899;SDS011;8048;50.644;6.184;2022-11-12T01:03:40;1.40;;;1.30;;
15899;SDS011;8048;50.644;6.184;2022-11-12T01:06:08;1.70;;;1.60;;
15899;SDS011;8048;50.644;6.184;2022-11-12T01:08:54;1.47;;;1.37;;
15899;SDS011;8048;50.644;6.184;2022-11-12T01:11:21;1.00;;;1.00;;
15899;SDS011;8048;50.644;6.184;2022-11-12T01:13:56;1.10;;;1.10;;
15899;SDS011;8048;50.644;6.184;2022-11-12T01:16:35;2.90;;;1.80;;
15899;SDS011;8048;50.644;6.184;2022-11-12T01:19:04;1.20;;;1.10;;
15899;SDS011;8048;50.644;6.184;2022-11-12T01:21:35;1.10;;;1.10;;
15899;SDS011;8048;50.644;6.184;2022-11-12T01:24:03;1.80;;;1.70;;
15899;SDS011;8048;50.644;6.184;2022-11-12T01:26:29;1.20;;;1.10;;
15899;SDS011;8048;50.644;6.184;2022-11-12T01:28:54;1.00;;;0.90;;
15899;SDS011;8048;50.644;6.184;2022-11-12T01:31:22;1.30;;;1.20;;
15899;SDS011;8048;50.644;6.184;2022-11-12T01:33:52;2.70;;;1.47;;
15899;SDS011;8048;50.644;6.184;2022-11-12T01:36:19;1.40;;;1.30;;
15899;SDS011;8048;50.644;6.184;2022-11-12T01:38:46;1.60;;;1.40;;
15899;SDS011;8048;50.644;6.184;2022-11-12T01:41:16;1.43;;;1.30;;
15899;SDS011;8048;50.644;6.184;2022-11-12T01:43:43;2.07;;;1.50;;
15899;SDS011;8048;50.644;6.184;2022-11-12T01:46:27;1.00;;;1.00;;
15899;SDS011;8048;50.644;6.184;2022-11-12T01:48:54;2.10;;;1.90;;
15899;SDS011;8048;50.644;6.184;2022-11-12T01:51:31;1.00;;;1.00;;
15899;SDS011;8048;50.644;6.184;2022-11-12T01:54:03;1.80;;;1.70;;
15899;SDS011;8048;50.644;6.184;2022-11-12T01:56:33;1.13;;;1.10;;
15899;SDS011;8048;50.644;6.184;2022-11-12T01:59:01;1.17;;;1.17;;
15899;SDS011;8048;50.644;6.184;2022-11-12T02:01:30;1.43;;;1.33;;
15899;SDS011;8048;50.644;6.184;2022-11-12T02:03:56;2.90;;;1.30;;
15899;SDS011;8048;50.644;6.184;2022-11-12T02:06:22;1.50;;;1.20;;
15899;SDS011;8048;50.644;6.184;2022-11-12T02:08:48;1.63;;;1.53;;
15899;SDS011;8048;50.644;6.184;2022-11-12T02:11:16;2.97;;;1.47;;
15899;SDS011;8048;50.644;6.184;2022-11-12T02:13:44;3.40;;;1.90;;
15899;SDS011;8048;50.644;6.184;2022-11-12T02:16:29;1.63;;;1.53;;
15899;SDS011;8048;50.644;6.184;2022-11-12T02:18:57;1.10;;;1.10;;
15899;SDS011;8048;50.644;6.184;2022-11-12T02:21:23;1.33;;;1.23;;
15899;SDS011;8048;50.644;6.184;2022-11-12T02:23:56;2.00;;;1.30;;
15899;SDS011;8048;50.644;6.184;2022-11-12T02:26:22;1.37;;;1.27;;
15899;SDS011;8048;50.644;6.184;2022-11-12T02:28:48;1.90;;;1.83;;
15899;SDS011;8048;50.644;6.184;2022-11-12T02:31:13;1.10;;;1.10;;
15899;SDS011;8048;50.644;6.184;2022-11-12T02:33:39;1.13;;;1.13;;
15899;SDS011;8048;50.644;6.184;2022-11-12T02:36:04;1.67;;;1.57;;
15899;SDS011;8048;50.644;6.184;2022-11-12T02:38:30;1.57;;;1.50;;
15899;SDS011;8048;50.644;6.184;2022-11-12T02:40:55;1.07;;;1.07;;
15899;SDS011;8048;50.644;6.184;2022-11-12T02:43:21;1.67;;;1.57;;
15899;SDS011;8048;50.644;6.184;2022-11-12T02:45:46;1.50;;;1.40;;
15899;SDS011;8048;50.644;6.184;2022-11-12T02:48:12;1.40;;;1.40;;
15899;SDS011;8048;50.644;6.184;2022-11-12T02:50:38;1.43;;;1.33;;
15899;SDS011;8048;50.644;6.184;2022-11-12T02:53:03;1.67;;;1.57;;
15899;SDS011;8048;50.644;6.184;2022-11-12T02:55:29;1.90;;;1.80;;
15899;SDS011;8048;50.644;6.184;2022-11-12T02:57:57;1.40;;;1.33;;
15899;SDS011;8048;50.644;6.184;2022-11-12T03:00:23;1.43;;;1.33;;
15899;SDS011;8048;50.644;6.184;2022-11-12T03:02:49;1.10;;;1.10;;
15899;SDS011;8048;50.644;6.184;2022-11-12T03:05:24;1.20;;;1.20;;
15899;SDS011;8048;50.644;6.184;2022-11-12T03:07:58;0.90;;;0.90;;
15899;SDS011;8048;50.644;6.184;2022-11-12T03:10:25;1.57;;;1.47;;
15899;SDS011;8048;50.644;6.184;2022-11-12T03:12:52;1.23;;;1.23;;
15899;SDS011;8048;50.644;6.184;2022-11-12T03:15:19;1.40;;;1.30;;
15899;SDS011;8048;50.644;6.184;2022-11-12T03:17:45;1.73;;;1.63;;
15899;SDS011;8048;50.644;6.184;2022-11-12T03:20:11;1.40;;;1.30;;
15899;SDS011;8048;50.644;6.184;2022-11-12T03:22:37;1.20;;;1.20;;
15899;SDS011;8048;50.644;6.184;2022-11-12T03:25:04;1.40;;;1.30;;
15899;SDS011;8048;50.644;6.184;2022-11-12T03:27:31;2.10;;;1.40;;
15899;SDS011;8048;50.644;6.184;2022-11-12T03:29:57;4.67;;;1.57;;
15899;SDS011;8048;50.644;6.184;2022-11-12T03:32:22;0.97;;;0.97;;
15899;SDS011;8048;50.644;6.184;2022-11-12T03:34:48;1.20;;;1.20;;
15899;SDS011;8048;50.644;6.184;2022-11-12T03:37:14;1.57;;;1.47;;
15899;SDS011;8048;50.644;6.184;2022-11-12T03:39:39;1.83;;;1.43;;
15899;SDS011;8048;50.644;6.184;2022-11-12T03:42:05;1.30;;;1.27;;
15899;SDS011;8048;50.644;6.184;2022-11-12T03:44:30;1.43;;;1.40;;
15899;SDS011;8048;50.644;6.184;2022-11-12T03:46:56;1.50;;;1.40;;
15899;SDS011;8048;50.644;6.184;2022-11-12T03:49:22;1.53;;;1.40;;
15899;SDS011;8048;50.644;6.184;2022-11-12T03:51:47;1.50;;;1.40;;
15899;SDS011;8048;50.644;6.184;2022-11-12T03:54:13;1.10;;;1.07;;
15899;SDS011;8048;50.644;6.184;2022-11-12T03:56:38;1.20;;;1.20;;
15899;SDS011;8048;50.644;6.184;2022-11-12T03:59:04;1.50;;;1.40;;
15899;SDS011;8048;50.644;6.184;2022-11-12T04:01:30;1.47;;;1.43;;
15899;SDS011;8048;50.644;6.184;2022-11-12T04:03:56;1.47;;;1.30;;
15899;SDS011;8048;50.644;6.184;2022-11-12T04:06:21;1.83;;;1.40;;
15899;SDS011;8048;50.644;6.184;2022-11-12T04:09:05;1.33;;;1.23;;
15899;SDS011;8048;50.644;6.184;2022-11-12T04:11:31;1.40;;;1.33;;
15899;SDS011;8048;50.644;6.184;2022-11-12T04:13:56;1.10;;;1.10;;
15899;SDS011;8048;50.644;6.184;2022-11-12T04:16:23;1.50;;;1.40;;
15899;SDS011;8048;50.644;6.184;2022-11-12T04:19:09;1.30;;;1.30;;
15899;SDS011;8048;50.644;6.184;2022-11-12T04:21:57;2.07;;;1.33;;
15899;SDS011;8048;50.644;6.184;2022-11-12T04:24:36;1.60;;;1.50;;
15899;SDS011;8048;50.644;6.184;2022-11-12T04:29:51;1.30;;;1.23;;
15899;SDS011;8048;50.644;6.184;2022-11-12T04:32:38;1.10;;;1.10;;
15899;SDS011;8048;50.644;6.184;2022-11-12T04:35:09;1.50;;;1.40;;
15899;SDS011;8048;50.644;6.184;2022-11-12T04:37:35;1.60;;;1.50;;
15899;SDS011;8048;50.644;6.184;2022-11-12T04:43:05;1.40;;;1.40;;
15899;SDS011;8048;50.644;6.184;2022-11-12T04:45:51;2.00;;;1.90;;
15899;SDS011;8048;50.644;6.184;2022-11-12T04:48:18;2.53;;;2.27;;
15899;SDS011;8048;50.644;6.184;2022-11-12T04:50:46;2.50;;;2.30;;
15899;SDS011;8048;50.644;6.184;2022-11-12T04:53:13;1.70;;;1.60;;
15899;SDS011;8048;50.644;6.184;2022-11-12T04:55:39;4.03;;;3.27;;
15899;SDS011;8048;50.644;6.184;2022-11-12T04:58:05;2.50;;;1.97;;
15899;SDS011;8048;50.644;6.184;2022-11-12T05:00:30;2.43;;;1.90;;
15899;SDS011;8048;50.644;6.184;2022-11-12T05:02:56;2.90;;;2.37;;
15899;SDS011;8048;50.644;6.184;2022-11-12T05:05:22;2.10;;;2.00;;
15899;SDS011;8048;50.644;6.184;2022-11-12T05:07:47;4.60;;;2.40;;
15899;SDS011;8048;50.644;6.184;2022-11-12T05:10:13;6.07;;;3.47;;
15899;SDS011;8048;50.644;6.184;2022-11-12T05:12:39;4.20;;;2.70;;
15899;SDS011;8048;50.644;6.184;2022-11-12T05:15:04;4.83;;;3.10;;
15899;SDS011;8048;50.644;6.184;2022-11-12T05:17:30;1.70;;;1.60;;
15899;SDS011;8048;50.644;6.184;2022-11-12T05:19:56;1.87;;;1.67;;
15899;SDS011;8048;50.644;6.184;2022-11-12T05:22:21;1.27;;;1.17;;
15899;SDS011;8048;50.644;6.184;2022-11-12T05:24:47;1.43;;;1.33;;
15899;SDS011;8048;50.644;6.184;2022-11-12T05:27:14;1.57;;;1.47;;
15899;SDS011;8048;50.644;6.184;2022-11-12T05:29:41;1.60;;;1.50;;
15899;SDS011;8048;50.644;6.184;2022-11-12T05:32:07;1.73;;;1.63;;
15899;SDS011;8048;50.644;6.184;2022-11-12T05:34:34;1.77;;;1.63;;
15899;SDS011;8048;50.644;6.184;2022-11-12T05:37:01;3.53;;;1.40;;
15899;SDS011;8048;50.644;6.184;2022-11-12T05:39:27;3.13;;;1.70;;
15899;SDS011;8048;50.644;6.184;2022-11-12T05:41:53;2.00;;;1.63;;
15899;SDS011;8048;50.644;6.184;2022-11-12T05:44:18;2.33;;;2.00;;
15899;SDS011;8048;50.644;6.184;2022-11-12T05:46:44;3.67;;;3.00;;
15899;SDS011;8048;50.644;6.184;2022-11-12T05:49:10;2.30;;;2.20;;
15899;SDS011;8048;50.644;6.184;2022-11-12T05:51:36;2.67;;;2.10;;
15899;SDS011;8048;50.644;6.184;2022-11-12T05:54:02;5.23;;;3.73;;
15899;SDS011;8048;50.644;6.184;2022-11-12T05:56:27;4.67;;;2.83;;
15899;SDS011;8048;50.644;6.184;2022-11-12T05:58:53;2.30;;;2.20;;
15899;SDS011;8048;50.644;6.184;2022-11-12T06:01:19;3.53;;;2.27;;
15899;SDS011;8048;50.644;6.184;2022-11-12T06:03:44;3.63;;;2.20;;
15899;SDS011;8048;50.644;6.184;2022-11-12T06:06:10;3.60;;;2.67;;
15899;SDS011;8048;50.644;6.184;2022-11-12T06:08:36;2.40;;;2.20;;
15899;SDS011;8048;50.644;6.184;2022-11-12T06:11:01;4.07;;;3.77;;
15899;SDS011;8048;50.644;6.184;2022-11-12T06:13:27;1.70;;;1.60;;
15899;SDS011;8048;50.644;6.184;2022-11-12T06:15:52;3.03;;;2.33;;
15899;SDS011;8048;50.644;6.184;2022-11-12T06:18:19;2.20;;;2.10;;
15899;SDS011;8048;50.644;6.184;2022-11-12T06:20:45;3.00;;;2.80;;
15899;SDS011;8048;50.644;6.184;2022-11-12T06:23:30;1.90;;;1.80;;
15899;SDS011;8048;50.644;6.184;2022-11-12T06:25:56;2.20;;;2.10;;
15899;SDS011;8048;50.644;6.184;2022-11-12T06:28:21;3.40;;;3.20;;
15899;SDS011;8048;50.644;6.184;2022-11-12T06:30:47;2.13;;;1.90;;
15899;SDS011;8048;50.644;6.184;2022-11-12T06:33:12;3.10;;;2.40;;
15899;SDS011;8048;50.644;6.184;2022-11-12T06:35:38;1.97;;;1.87;;
15899;SDS011;8048;50.644;6.184;2022-11-12T06:38:03;2.40;;;1.90;;
15899;SDS011;8048;50.644;6.184;2022-11-12T06:40:29;1.50;;;1.40;;
15899;SDS011;8048;50.644;6.184;2022-11-12T06:42:55;1.73;;;1.60;;
15899;SDS011;8048;50.644;6.184;2022-11-12T06:45:22;4.17;;;2.57;;
15899;SDS011;8048;50.644;6.184;2022-11-12T06:47:47;2.80;;;2.10;;
15899;SDS011;8048;50.644;6.184;2022-11-12T06:50:13;2.53;;;2.43;;
15899;SDS011;8048;50.644;6.184;2022-11-12T06:52:38;1.57;;;1.47;;
15899;SDS011;8048;50.644;6.184;2022-11-12T06:55:04;1.40;;;1.40;;
15899;SDS011;8048;50.644;6.184;2022-11-12T06:57:30;1.90;;;1.80;;
15899;SDS011;8048;50.644;6.184;2022-11-12T06:59:55;2.17;;;2.00;;
15899;SDS011;8048;50.644;6.184;2022-11-12T07:02:21;2.20;;;1.40;;
15899;SDS011;8048;50.644;6.184;2022-11-12T07:04:46;1.47;;;1.37;;
15899;SDS011;8048;50.644;6.184;2022-11-12T07:07:12;1.77;;;1.67;;
15899;SDS011;8048;50.644;6.184;2022-11-12T07:09:37;1.77;;;1.67;;
15899;SDS011;8048;50.644;6.184;2022-11-12T07:12:03;2.20;;;2.00;;
15899;SDS011;8048;50.644;6.184;2022-11-12T07:14:29;2.33;;;2.13;;
15899;SDS011;8048;50.644;6.184;2022-11-12T07:16:54;1.83;;;1.73;;
15899;SDS011;8048;50.644;6.184;2022-11-12T07:19:20;1.50;;;1.50;;
15899;SDS011;8048;50.644;6.184;2022-11-12T07:21:45;2.87;;;1.57;;
15899;SDS011;8048;50.644;6.184;2022-11-12T07:24:11;1.77;;;1.67;;
15899;SDS011;8048;50.644;6.184;2022-11-12T07:26:36;2.83;;;1.63;;
15899;SDS011;8048;50.644;6.184;2022-11-12T07:29:02;1.83;;;1.70;;
15899;SDS011;8048;50.644;6.184;2022-11-12T07:31:27;2.00;;;1.77;;
15899;SDS011;8048;50.644;6.184;2022-11-12T07:33:53;1.57;;;1.50;;
15899;SDS011;8048;50.644;6.184;2022-11-12T07:36:19;1.40;;;1.40;;
15899;SDS011;8048;50.644;6.184;2022-11-12T07:38:45;1.80;;;1.70;;
15899;SDS011;8048;50.644;6.184;2022-11-12T07:41:15;1.93;;;1.83;;
15899;SDS011;8048;50.644;6.184;2022-11-12T07:43:43;2.53;;;2.43;;
15899;SDS011;8048;50.644;6.184;2022-11-12T07:46:12;3.83;;;1.90;;
15899;SDS011;8048;50.644;6.184;2022-11-12T07:48:42;1.60;;;1.50;;
15899;SDS011;8048;50.644;6.184;2022-11-12T07:51:15;1.70;;;1.60;;
15899;SDS011;8048;50.644;6.184;2022-11-12T07:53:45;1.83;;;1.73;;
15899;SDS011;8048;50.644;6.184;2022-11-12T07:56:16;1.40;;;1.40;;
15899;SDS011;8048;50.644;6.184;2022-11-12T07:58:43;1.83;;;1.73;;
15899;SDS011;8048;50.644;6.184;2022-11-12T08:01:31;1.80;;;1.70;;
15899;SDS011;8048;50.644;6.184;2022-11-12T08:03:59;2.13;;;1.93;;
15899;SDS011;8048;50.644;6.184;2022-11-12T08:06:26;1.70;;;1.60;;
15899;SDS011;8048;50.644;6.184;2022-11-12T08:08:54;1.60;;;1.60;;
15899;SDS011;8048;50.644;6.184;2022-11-12T08:11:20;1.77;;;1.70;;
15899;SDS011;8048;50.644;6.184;2022-11-12T08:13:47;1.90;;;1.80;;
15899;SDS011;8048;50.644;6.184;2022-11-12T08:16:13;1.20;;;1.20;;
15899;SDS011;8048;50.644;6.184;2022-11-12T08:18:38;2.03;;;1.90;;
15899;SDS011;8048;50.644;6.184;2022-11-12T08:21:05;1.60;;;1.50;;
15899;SDS011;8048;50.644;6.184;2022-11-12T08:23:32;1.40;;;1.40;;
15899;SDS011;8048;50.644;6.184;2022-11-12T08:25:58;1.47;;;1.47;;
15899;SDS011;8048;50.644;6.184;2022-11-12T08:28:25;1.60;;;1.60;;
15899;SDS011;8048;50.644;6.184;2022-11-12T08:30:52;1.20;;;1.20;;
15899;SDS011;8048;50.644;6.184;2022-11-12T08:33:17;1.30;;;1.20;;
15899;SDS011;8048;50.644;6.184;2022-11-12T08:35:43;1.33;;;1.30;;
15899;SDS011;8048;50.644;6.184;2022-11-12T08:38:09;1.33;;;1.30;;
15899;SDS011;8048;50.644;6.184;2022-11-12T08:40:35;1.30;;;1.30;;
15899;SDS011;8048;50.644;6.184;2022-11-12T08:43:02;1.37;;;1.37;;
15899;SDS011;8048;50.644;6.184;2022-11-12T08:45:30;1.20;;;1.20;;
15899;SDS011;8048;50.644;6.184;2022-11-12T08:48:01;1.30;;;1.30;;
15899;SDS011;8048;50.644;6.184;2022-11-12T08:50:29;1.53;;;1.43;;
15899;SDS011;8048;50.644;6.184;2022-11-12T08:52:58;1.93;;;1.83;;
15899;SDS011;8048;50.644;6.184;2022-11-12T08:55:25;1.20;;;1.20;;
15899;SDS011;8048;50.644;6.184;2022-11-12T08:57:52;1.43;;;1.43;;
15899;SDS011;8048;50.644;6.184;2022-11-12T09:00:17;1.30;;;1.30;;
15899;SDS011;8048;50.644;6.184;2022-11-12T09:02:43;1.30;;;1.20;;
15899;SDS011;8048;50.644;6.184;2022-11-12T09:05:08;1.10;;;1.10;;
15899;SDS011;8048;50.644;6.184;2022-11-12T09:07:34;1.50;;;1.40;;
15899;SDS011;8048;50.644;6.184;2022-11-12T09:09:59;1.33;;;1.33;;
15899;SDS011;8048;50.644;6.184;2022-11-12T09:12:25;1.53;;;1.43;;
15899;SDS011;8048;50.644;6.184;2022-11-12T09:14:51;2.17;;;1.97;;
15899;SDS011;8048;50.644;6.184;2022-11-12T09:17:17;1.90;;;1.80;;
15899;SDS011;8048;50.644;6.184;2022-11-12T09:19:42;2.17;;;2.07;;
15899;SDS011;8048;50.644;6.184;2022-11-12T09:22:08;1.93;;;1.90;;
15899;SDS011;8048;50.644;6.184;2022-11-12T09:24:33;2.60;;;2.47;;
15899;SDS011;8048;50.644;6.184;2022-11-12T09:26:59;2.57;;;2.37;;
15899;SDS011;8048;50.644;6.184;2022-11-12T09:29:24;1.70;;;1.70;;
15899;SDS011;8048;50.644;6.184;2022-11-12T09:31:50;4.67;;;1.80;;
15899;SDS011;8048;50.644;6.184;2022-11-12T09:34:15;1.83;;;1.50;;
15899;SDS011;8048;50.644;6.184;2022-11-12T09:36:41;1.60;;;1.60;;
15899;SDS011;8048;50.644;6.184;2022-11-12T09:39:06;1.30;;;1.30;;
15899;SDS011;8048;50.644;6.184;2022-11-12T09:41:35;2.50;;;1.30;;
15899;SDS011;8048;50.644;6.184;2022-11-12T09:44:15;1.80;;;1.70;;
15899;SDS011;8048;50.644;6.184;2022-11-12T09:49:27;1.10;;;1.10;;
15899;SDS011;8048;50.644;6.184;2022-11-12T09:52:02;1.30;;;1.30;;
15899;SDS011;8048;50.644;6.184;2022-11-12T09:54:35;1.83;;;1.57;;
15899;SDS011;8048;50.644;6.184;2022-11-12T09:57:01;1.60;;;1.60;;
15899;SDS011;8048;50.644;6.184;2022-11-12T09:59:31;2.00;;;1.90;;
15899;SDS011;8048;50.644;6.184;2022-11-12T10:04:35;1.77;;;1.50;;
15899;SDS011;8048;50.644;6.184;2022-11-12T10:13:24;1.57;;;1.57;;
15899;SDS011;8048;50.644;6.184;2022-11-12T10:24:19;1.90;;;1.80;;
15899;SDS011;8048;50.644;6.184;2022-11-12T10:26:47;1.87;;;1.87;;
15899;SDS011;8048;50.644;6.184;2022-11-12T10:29:35;1.67;;;1.57;;
15899;SDS011;8048;50.644;6.184;2022-11-12T10:32:20;1.50;;;1.50;;
15899;SDS011;8048;50.644;6.184;2022-11-12T10:34:46;1.43;;;1.43;;
15899;SDS011;8048;50.644;6.184;2022-11-12T10:37:13;1.40;;;1.40;;
15899;SDS011;8048;50.644;6.184;2022-11-12T10:39:45;1.50;;;1.40;;
15899;SDS011;8048;50.644;6.184;2022-11-12T10:42:21;1.40;;;1.30;;
15899;SDS011;8048;50.644;6.184;2022-11-12T10:44:47;1.40;;;1.40;;
15899;SDS011;8048;50.644;6.184;2022-11-12T10:50:01;1.23;;;1.23;;
15899;SDS011;8048;50.644;6.184;2022-11-12T10:52:36;1.30;;;1.20;;
15899;SDS011;8048;50.644;6.184;2022-11-12T10:55:06;2.03;;;1.93;;
15899;SDS011;8048;50.644;6.184;2022-11-12T10:57:38;1.43;;;1.43;;
15899;SDS011;8048;50.644;6.184;2022-11-12T11:02:49;1.50;;;1.50;;
15899;SDS011;8048;50.644;6.184;2022-11-12T11:05:33;1.30;;;1.30;;
15899;SDS011;8048;50.644;6.184;2022-11-12T11:08:15;1.30;;;1.30;;
15899;SDS011;8048;50.644;6.184;2022-11-12T11:11:23;1.57;;;1.57;;
15899;SDS011;8048;50.644;6.184;2022-11-12T11:13:50;1.37;;;1.20;;
15899;SDS011;8048;50.644;6.184;2022-11-12T11:16:19;1.30;;;1.30;;
15899;SDS011;8048;50.644;6.184;2022-11-12T11:18:57;1.43;;;1.43;;
15899;SDS011;8048;50.644;6.184;2022-11-12T11:21:49;1.70;;;1.60;;
15899;SDS011;8048;50.644;6.184;2022-11-12T11:46:42;2.00;;;1.90;;
15899;SDS011;8048;50.644;6.184;2022-11-12T11:54:42;1.50;;;1.50;;
15899;SDS011;8048;50.644;6.184;2022-11-12T11:57:18;1.47;;;1.47;;
15899;SDS011;8048;50.644;6.184;2022-11-12T12:00:00;1.90;;;1.80;;
15899;SDS011;8048;50.644;6.184;2022-11-12T12:05:32;1.60;;;1.60;;
15899;SDS011;8048;50.644;6.184;2022-11-12T12:08:18;1.43;;;1.43;;
15899;SDS011;8048;50.644;6.184;2022-11-12T12:11:14;1.50;;;1.50;;
15899;SDS011;8048;50.644;6.184;2022-11-12T12:14:17;1.53;;;1.53;;
15899;SDS011;8048;50.644;6.184;2022-11-12T12:19:32;1.50;;;1.50;;
15899;SDS011;8048;50.644;6.184;2022-11-12T12:22:09;1.67;;;1.57;;
15899;SDS011;8048;50.644;6.184;2022-11-12T12:24:43;1.30;;;1.30;;
15899;SDS011;8048;50.644;6.184;2022-11-12T12:27:33;2.20;;;2.10;;
15899;SDS011;8048;50.644;6.184;2022-11-12T12:30:02;1.70;;;1.60;;
15899;SDS011;8048;50.644;6.184;2022-11-12T12:32:56;1.80;;;1.73;;
15899;SDS011;8048;50.644;6.184;2022-11-12T12:38:00;2.00;;;1.90;;
15899;SDS011;8048;50.644;6.184;2022-11-12T12:43:52;1.90;;;1.90;;
15899;SDS011;8048;50.644;6.184;2022-11-12T12:46:21;2.30;;;2.20;;
15899;SDS011;8048;50.644;6.184;2022-11-12T12:48:50;2.13;;;2.03;;
15899;SDS011;8048;50.644;6.184;2022-11-12T12:51:18;2.30;;;2.10;;
15899;SDS011;8048;50.644;6.184;2022-11-12T12:53:44;2.20;;;2.20;;
15899;SDS011;8048;50.644;6.184;2022-11-12T12:58:47;1.90;;;1.90;;
15899;SDS011;8048;50.644;6.184;2022-11-12T13:03:50;3.40;;;2.20;;
15899;SDS011;8048;50.644;6.184;2022-11-12T13:19:32;2.10;;;2.00;;
15899;SDS011;8048;50.644;6.184;2022-11-12T13:45:46;2.27;;;2.17;;
15899;SDS011;8048;50.644;6.184;2022-11-12T13:50:52;2.40;;;2.30;;
15899;SDS011;8048;50.644;6.184;2022-11-12T13:53:24;2.00;;;1.90;;
15899;SDS011;8048;50.644;6.184;2022-11-12T13:55:52;2.20;;;2.10;;
15899;SDS011;8048;50.644;6.184;2022-11-12T13:58:19;2.63;;;2.53;;
15899;SDS011;8048;50.644;6.184;2022-11-12T14:00:55;2.53;;;2.33;;
15899;SDS011;8048;50.644;6.184;2022-11-12T14:03:23;2.63;;;2.53;;
15899;SDS011;8048;50.644;6.184;2022-11-12T14:05:52;2.03;;;1.93;;
15899;SDS011;8048;50.644;6.184;2022-11-12T14:08:24;2.50;;;2.40;;
15899;SDS011;8048;50.644;6.184;2022-11-12T14:13:55;1.83;;;1.73;;
15899;SDS011;8048;50.644;6.184;2022-11-12T14:17:08;2.20;;;2.00;;
15899;SDS011;8048;50.644;6.184;2022-11-12T14:19:52;1.80;;;1.70;;
15899;SDS011;8048;50.644;6.184;2022-11-12T14:22:43;2.20;;;2.10;;
15899;SDS011;8048;50.644;6.184;2022-11-12T14:25:17;2.30;;;2.20;;
15899;SDS011;8048;50.644;6.184;2022-11-12T14:27:48;2.40;;;2.30;;
15899;SDS011;8048;50.644;6.184;2022-11-12T14:30:17;2.50;;;2.33;;
15899;SDS011;8048;50.644;6.184;2022-11-12T14:32:45;2.40;;;2.30;;
15899;SDS011;8048;50.644;6.184;2022-11-12T14:38:12;2.93;;;2.73;;
15899;SDS011;8048;50.644;6.184;2022-11-12T14:40:55;2.50;;;2.30;;
15899;SDS011;8048;50.644;6.184;2022-11-12T14:43:36;3.03;;;2.70;;
15899;SDS011;8048;50.644;6.184;2022-11-12T14:46:07;2.70;;;2.50;;
15899;SDS011;8048;50.644;6.184;2022-11-12T14:48:47;2.90;;;2.70;;
15899;SDS011;8048;50.644;6.184;2022-11-12T14:51:16;5.30;;;2.63;;
15899;SDS011;8048;50.644;6.184;2022-11-12T14:53:46;3.20;;;3.00;;
15899;SDS011;8048;50.644;6.184;2022-11-12T14:56:22;3.37;;;3.17;;
15899;SDS011;8048;50.644;6.184;2022-11-12T14:58:51;3.43;;;2.60;;
15899;SDS011;8048;50.644;6.184;2022-11-12T15:01:32;3.50;;;3.20;;
15899;SDS011;8048;50.644;6.184;2022-11-12T15:04:04;4.47;;;3.30;;
15899;SDS011;8048;50.644;6.184;2022-11-12T15:06:51;2.40;;;2.20;;
15899;SDS011;8048;50.644;6.184;2022-11-12T15:09:25;2.27;;;2.17;;
15899;SDS011;8048;50.644;6.184;2022-11-12T15:11:56;3.30;;;2.80;;
15899;SDS011;8048;50.644;6.184;2022-11-12T15:14:23;2.60;;;2.50;;
15899;SDS011;8048;50.644;6.184;2022-11-12T15:16:49;1.57;;;1.57;;
15899;SDS011;8048;50.644;6.184;2022-11-12T15:19:20;3.10;;;2.10;;
15899;SDS011;8048;50.644;6.184;2022-11-12T15:21:51;2.23;;;2.13;;
15899;SDS011;8048;50.644;6.184;2022-11-12T15:24:23;1.77;;;1.67;;
15899;SDS011;8048;50.644;6.184;2022-11-12T15:26:53;2.33;;;2.20;;
15899;SDS011;8048;50.644;6.184;2022-11-12T15:29:25;1.83;;;1.77;;
15899;SDS011;8048;50.644;6.184;2022-11-12T15:32:36;1.70;;;1.60;;
15899;SDS011;8048;50.644;6.184;2022-11-12T15:34:43;2.00;;;1.90;;
15899;SDS011;8048;50.644;6.184;2022-11-12T15:39:50;1.80;;;1.70;;
15899;SDS011;8048;50.644;6.184;2022-11-12T15:45:02;1.80;;;1.70;;
15899;SDS011;8048;50.644;6.184;2022-11-12T15:47:33;3.93;;;2.20;;
15899;SDS011;8048;50.644;6.184;2022-11-12T15:49:59;2.27;;;2.07;;
15899;SDS011;8048;50.644;6.184;2022-11-12T15:52:24;1.30;;;1.30;;
15899;SDS011;8048;50.644;6.184;2022-11-12T15:54:50;1.90;;;1.80;;
15899;SDS011;8048;50.644;6.184;2022-11-12T15:57:17;1.57;;;1.50;;
15899;SDS011;8048;50.644;6.184;2022-11-12T15:59:48;2.13;;;2.03;;
15899;SDS011;8048;50.644;6.184;2022-11-12T16:02:19;1.73;;;1.63;;
15899;SDS011;8048;50.644;6.184;2022-11-12T16:04:45;2.57;;;2.37;;
15899;SDS011;8048;50.644;6.184;2022-11-12T16:07:10;2.30;;;2.20;;
15899;SDS011;8048;50.644;6.184;2022-11-12T16:09:36;2.10;;;2.00;;
15899;SDS011;8048;50.644;6.184;2022-11-12T16:12:02;3.43;;;1.93;;
15899;SDS011;8048;50.644;6.184;2022-11-12T16:14:28;2.40;;;2.20;;
15899;SDS011;8048;50.644;6.184;2022-11-12T16:16:54;2.67;;;2.30;;
15899;SDS011;8048;50.644;6.184;2022-11-12T16:19:21;2.60;;;2.40;;
15899;SDS011;8048;50.644;6.184;2022-11-12T16:21:47;2.53;;;2.33;;
15899;SDS011;8048;50.644;6.184;2022-11-12T16:24:13;2.30;;;2.17;;
15899;SDS011;8048;50.644;6.184;2022-11-12T16:26:39;3.80;;;2.00;;
15899;SDS011;8048;50.644;6.184;2022-11-12T16:29:08;5.10;;;2.60;;
15899;SDS011;8048;50.644;6.184;2022-11-12T16:31:36;2.30;;;2.20;;
15899;SDS011;8048;50.644;6.184;2022-11-12T16:34:02;3.23;;;2.80;;
15899;SDS011;8048;50.644;6.184;2022-11-12T16:36:27;2.43;;;2.33;;
15899;SDS011;8048;50.644;6.184;2022-11-12T16:38:53;2.60;;;2.40;;
15899;SDS011;8048;50.644;6.184;2022-11-12T16:41:18;3.00;;;2.20;;
15899;SDS011;8048;50.644;6.184;2022-11-12T16:43:44;2.27;;;2.17;;
15899;SDS011;8048;50.644;6.184;2022-11-12T16:46:21;2.17;;;2.00;;
15899;SDS011;8048;50.644;6.184;2022-11-12T16:48:50;2.53;;;2.33;;
15899;SDS011;8048;50.644;6.184;2022-11-12T16:51:16;3.13;;;2.07;;
15899;SDS011;8048;50.644;6.184;2022-11-12T16:53:43;2.37;;;2.07;;
15899;SDS011;8048;50.644;6.184;2022-11-12T16:56:15;2.23;;;2.13;;
15899;SDS011;8048;50.644;6.184;2022-11-12T16:58:42;2.40;;;2.30;;
15899;SDS011;8048;50.644;6.184;2022-11-12T17:01:12;2.40;;;2.30;;
15899;SDS011;8048;50.644;6.184;2022-11-12T17:03:45;2.50;;;2.33;;
15899;SDS011;8048;50.644;6.184;2022-11-12T17:06:11;4.83;;;2.10;;
15899;SDS011;8048;50.644;6.184;2022-11-12T17:08:36;1.93;;;1.83;;
15899;SDS011;8048;50.644;6.184;2022-11-12T17:11:06;2.70;;;2.23;;
15899;SDS011;8048;50.644;6.184;2022-11-12T17:13:35;2.43;;;2.30;;
15899;SDS011;8048;50.644;6.184;2022-11-12T17:16:05;1.80;;;1.70;;
15899;SDS011;8048;50.644;6.184;2022-11-12T17:18:31;2.13;;;2.00;;